Aviation Digital Data Service (ADDS)

Output produced by METARs form (1844 UTC 18 June 2019)
found at http://www.aviationweather.gov/metar/data/
 
UNAA 181830Z 30001MPS CAVOK 15/10 Q1002 R02/090065 NOSIG RMK QFE729
TAF UNAA 181654Z 1818/1918 07003MPS CAVOK 
     FM190100 23003G10MPS 9999 SCT040 
     TEMPO 1903/1912 27008G13MPS
       
UOOO 181800Z 19006MPS 9999 SCT019CB 06/04 Q0999 R19/CLRD60 NOSIG RMK QFE733/0978
TAF AMD UOOO 181827Z 1818/1918 19008G13MPS 5000 FU SCT015CB 
     TEMPO 1818/1903 1000 SHRA BR BKN004CB 
     BECMG 1901/1903 15009G14MPS 
     TEMPO 1903/1918 18012G17MPS 1000 SHRA BR BKN004CB
       
URWA 181830Z 19003MPS CAVOK 25/15 Q1010 R09/010070 NOSIG RMK QFE759/1013
TAF URWA 181700Z 1818/1903 17003G08MPS 9999 SCT030
       
USCC 181830Z 26004MPS CAVOK 07/04 Q1010 R27/000060 NOSIG RMK QFE737
TAF USCC 181700Z 1818/1918 27003G08MPS 9999 SCT040 
     TEMPO 1906/1918 18003MPS 6000
       
UNBB 181830Z 22004MPS 9999 BKN030 13/11 Q1004 R24/290151 NOSIG RMK QFE731
TAF UNBB 181700Z 1818/1918 20003G08MPS 9999 BKN030CB 
     TEMPO 1818/1903 0300 -SHRA FG SCT003 BKN011CB 
     PROB40 
     TEMPO 1818/1903 -TSRA 
     TEMPO 1903/1918 27006G12MPS 3100 -SHRA BKN011CB
       
UWKE 181830Z 18004MPS CAVOK 18/09 Q1009 R21/090070 NOSIG RMK QFE740/0987
TAF UWKE 181645Z 1818/1918 27003G08MPS 9999 SCT030 
     TEMPO 1818/1906 VRB01MPS 
     TEMPO 1909/1918 21006G12MPS 5000 -SHRA SCT020CB
       
UUOB 181830Z 31003MPS 290V060 CAVOK 23/19 Q1014 R29/010060 NOSIG
TAF UUOB 181700Z 1818/1903 30003MPS 9999 SCT030
       
URMO 181730Z 00000MPS 9999 SCT040 21/16 Q1012 R09/010070 NOSIG RMK QFE715/0954
TAF URMO 181400Z 1815/1824 20003G08MPS 9999 SCT030CB
       
ULPB 181800Z AUTO 05003MPS 290V100 9999 // ///066/// 22/15 Q1009 RMK QFE753/1004
TAF ULPB 181359Z 1815/1824 26004MPS 9999 BKN015 
     TEMPO 1815/1818 28005G10MPS 3100 -SHRA BKN011 BKN020CB 
     TEMPO 1818/1824 29003MPS 3100 -SHRA BKN011 BKN020CB
       
USPP 181830Z 23005MPS CAVOK 11/07 Q1008 R21/090060 NOSIG RMK QFE745
TAF USPP 181658Z 1818/1918 24003G09MPS 9999 SCT030 
     BECMG 1905/1907 27003G15MPS BKN020CB 
     TEMPO 1907/1918 -TSRA
       
UIBB 181830Z AUTO 06003MPS 9999 // NCD 09/06 Q1015 RMK QFE718/0957
TAF UIBB 181700Z 1818/1918 08003G08MPS 9999 NSC
       
UUBP 181500Z 31003MPS 9999 SCT033 24/15 Q1015 R34/CLRD70 NOSIG RMK QFE743/0991
TAF UUBP 181356Z 1815/1824 33006MPS 9999 SCT030
       
UWKS 181830Z 28002MPS 9999 SCT023CB 20/08 Q1008 R24/010060 NOSIG RMK QFE742
TAF UWKS 181647Z 1818/1903 28003G08MPS 9999 BKN020CB 
     PROB40 
     TEMPO 1818/1821 -TSRA BKN015CB
       
UUOO 181830Z 02002MPS 9999 SCT040CB 20/16 Q1013 R30/090070 TEMPO -TSRA RMK QFE746
TAF UUOO 181659Z 1818/1903 30003MPS 9999 SCT030CB 
     TEMPO 1818/1821 -TSRA BKN020CB
       
UUDD 181830Z 29004MPS CAVOK 22/11 Q1013 R88/70D NOSIG
TAF UUDD 181657Z 1818/1924 32004MPS 9999 SCT040 TX26/1912Z TN13/1901Z 
     BECMG 1916/1918 VRB01MPS
       
URWI 181830Z AUTO 05004MPS 9999 // NCD 27/07 Q1010
TAF URWI 181400Z 1815/1824 08003G08MPS 9999 SCT030CB 
     TEMPO 1815/1824 35003G08MPS
       
URWW 181830Z 33001MPS CAVOK 23/13 Q1012 R06/010070 NOSIG
TAF URWW 181658Z 1818/1903 36003G08MPS CAVOK 
     TEMPO 1818/1903 02003G08MPS
       
UHBB 181800Z 32002MPS 260V360 9999 FEW026CB 15/11 Q0997 R18/090060 NOSIG RMK QFE733/0977
TAF UHBB 181655Z 1818/1918 02003MPS 9999 SCT030CB 
     FM190000 02007G12MPS 9999 BKN020CB 
     TEMPO 1900/1915 3100 -SHRA 
     BECMG 1910/1912 35003MPS
       
UIII 181830Z 11002MPS 6000 NSC 09/09 Q1015 R12/60D NOSIG RMK QFE719/0959
TAF UIII 181700Z 1818/1918 VRB01MPS 0300 FG VV001 
     TEMPO 1818/1901 2000 BR BKN003 
     BECMG 1901/1902 9999 NSW NSC
       
UIAA 181830Z AUTO VRB01MPS 9999 NCD 17/13 Q1009 RMK QFE698/0931
TAF UIAA 181700Z 1818/1918 20003G08MPS 9999 SCT040CB 
     TEMPO 1900/1906 28005G10MPS 3100 -SHRA 
     TEMPO 1906/1912 VRB08MPS -TSRA
       
UWKD 181830Z 15002MPS CAVOK 19/11 Q1008 R11/70D NOSIG RMK QFE746/0995
TAF UWKD 181700Z 1818/1918 18003MPS 9999 BKN030 TX25/1912Z TN15/1901Z 
     BECMG 1822/1824 26003MPS 
     TEMPO 1900/1906 5000 -SHRA BKN015CB 
     BECMG 1906/1908 32003MPS 
     TEMPO 1908/1912 VRB15MPS 3100 -TSRA BKN020CB
       
UNEE 181830Z 15004MPS 9000 SCT046 14/14 Q1002 R23/290055 NOSIG RMK QFE729
TAF UNEE 181700Z 1818/1918 14003G08MPS 1000 SHRA BR SCT002 BKN020CB 
     TEMPO 1819/1824 0100 FG VV001 
     FM190100 24005MPS 9999 SCT030
       
UHSS 181800Z 12003MPS 9999 NSC 07/06 Q1006 R19/70D NOSIG RMK QFE753/1004
TAF UHSS 181700Z 1818/1924 18003MPS 1400 BR BKN004 BKN020CB 
     BECMG 1820/1822 9999 NSW BKN030CB
       
UMKK 181830Z 06001MPS CAVOK 20/15 Q1018 R24/60D NOSIG RMK QFE762/1017
TAF UMKK 181658Z 1818/1918 05003MPS 9999 SCT030 
     BECMG 1821/1823 14003G08MPS 
     TEMPO 1821/1903 3100 BR MIFG 
     TEMPO 1915/1918 09003MPS BKN030
       
UHWW 181830Z 00000MPS 2800 BR OVC005 13/13 Q1006 R07R/0///70 NOSIG RMK QBB150 MT OBSC QFE753
TAF UHWW 181700Z 1818/1918 VRB01MPS 0400 FG VV002 
     BECMG 1821/1824 3100 BR BKN011 
     FM190100 20003MPS 9999 SCT030 
     TEMPO 1906/1918 3100 -SHRA BKN011 BKN015CB
       
USSS 181830Z 21002MPS 180V240 CAVOK 10/05 Q1009 R26R/010060 NOSIG RMK QFE736/0981
TAF USSS 181656Z 1818/1918 25003G12MPS 9999 SCT020CB 
     TEMPO 1910/1918 -TSRA
       
UNKL 181830Z 17001MPS CAVOK 09/07 Q1005 R11/CLRD65 NOSIG RMK QFE728
TAF UNKL 181655Z 1818/1918 19003G10MPS 9999 SCT020CB 
     TEMPO 1821/1903 3100 -TSRA BKN013CB 
     FM190300 26004G10MPS 7000 -SHRA SCT017CB 
     TEMPO 1903/1909 27009G15MPS 3100 -TSRA 
     BECMG 1911/1913 26003MPS 9999 NSW
       
UUOK 181830Z 35002MPS 9999 BKN033 21/17 Q1014 R30/CLRD65 NOSIG RMK QFE742/0989
TAF UUOK 181700Z 1818/1903 35003MPS 9999 SCT020CB BKN033
       
UWWW 181830Z 28003MPS 9999 SCT033 21/11 Q1010 R33/CLRD60 NOSIG RMK QFE747/0996
TAF UWWW 181652Z 1818/1918 24003G08MPS 9999 BKN020 TX27/1911Z TN15/1901Z 
     TEMPO 1818/1906 22008G15MPS 3100 -TSRA BKN020CB 
     TEMPO 1906/1918 32008G15MPS 3100 -TSRA BKN011CB
       
USCM 181830Z 01002MPS 9999 NSC 11/04 Q1011 R36/090065 NOSIG RMK QFE720
TAF USCM 181700Z 1818/1903 30003G08MPS 9999 SCT030 
     TEMPO 1821/1903 18003MPS 6000
       
URMM 181830Z 21002MPS 9999 NSC 23/13 Q1010 R12/090070 NOSIG RMK QFE730/0973
TAF URMM 181700Z 1818/1918 10003G08MPS 9999 NSC TX33/1912Z TN16/1902Z 
     TEMPO 1818/1906 VRB01MPS
       
UIUU 181830Z 29002MPS 220V330 9999 FEW046 12/08 Q1014 R26/60D NOSIG RMK QFE717/0956
TAF UIUU 181700Z 1818/1918 33003G08MPS 9999 SCT040CB
       
ULMM 181830Z 01002MPS CAVOK 08/01 Q1008 R31/090070 NOSIG RMK QFE749
TAF ULMM 181650Z 1818/1918 03003G08MPS 9999 SCT020 
     TEMPO 1818/1824 09003G08MPS 
     FM190000 05003G08MPS 5000 -SHRA BKN011CB 
     TEMPO 1900/1912 10003G08MPS 3100 -SHRA SCT006 BKN011CB 
     TEMPO 1912/1918 36004G10MPS
       
URMN 181800Z 24003MPS 9999 FEW/// 24/13 Q1011 R24/////// NOSIG RMK QFE721
TAF URMN 181700Z 1818/1903 24003G08MPS 9999 SCT030 
     TEMPO 1818/1824 BKN020
       
USNN 181830Z 00000MPS CAVOK 09/08 Q0999 R21/0///65 NOSIG RMK QFE744
TAF USNN 181700Z 1818/1918 09003MPS 9999 SCT020CB BKN050 
     BECMG 1900/1902 30005G12MPS
       
UHHH 181830Z 20002MPS 160V230 CAVOK 13/11 Q1001 R23L/090060 NOSIG RMK QFE745/0993
TAF UHHH 181645Z 1818/1924 23003MPS CAVOK 
     TEMPO 1818/1821 26006MPS 
     FM182100 19003MPS 9999 SCT030CB 
     TEMPO 1821/1903 22005G10MPS 
     TEMPO 1903/1912 VRB10MPS 2000 TSRA SCT006 BKN020CB
       
UWOO 181830Z 06003MPS 9999 FEW040 15/08 Q1010 R08/65D NOSIG RMK QFE747/0996
TAF UWOO 181654Z 1818/1918 02003G08MPS 9999 SCT030CB BKN040 TX28/1912Z
TN12/1900Z 
     TEMPO 1818/1918 11003G08MPS 3100 -TSRA BKN015CB
       
UWOR 181800Z 33003MPS CAVOK 17/04 Q1010 R25/CLRD65 NOSIG RMK QFE734/0979
TAF UWOR 181657Z 1818/1903 34005G10MPS 9999 BKN020CB BKN030 
     TEMPO 1818/1903 31003G08MPS 4000 -SHRA BKN015CB
       
URKK 181830Z 01005MPS CAVOK 26/11 Q1010 R05R/CLRD70 NOSIG RMK QFE754
TAF URKK 181650Z 1818/1918 01005G10MPS CAVOK 
     TEMPO 1818/1918 06005G10MPS
       
UERP 181800Z 27004MPS 9999 FEW026CB BKN036 OVC100 13/11 Q1009 R35/090060 NOSIG RMK QFE712
TAF UERP 181700Z 1818/1918 23004G09MPS 9999 SCT020CB OVC100 
     TEMPO 1818/1820 -SHRA BKN007 OVC015CB 
     BECMG 1820/1822 31006G11MPS
       
ULOO 181800Z 28002MPS 230V320 P5000 NSC 23/13 Q1016 R01/090070 NOSIG RMK QFE758
TAF ULOO 181656Z 1818/1903 29003MPS 9999 SCT030 
     TEMPO 1818/1903 31003MPS
       
ULLI 181830Z 27004MPS 240V300 CAVOK 18/09 Q1014 R28L/090060 NOSIG
TAF ULLI 181655Z 1818/1918 28006MPS 9999 SCT030 
     TEMPO 1818/1819 29007G12MPS 
     BECMG 1819/1822 27003MPS 
     TEMPO 1823/1903 3100 BR 
     TEMPO 1906/1918 30003G08MPS
       
USTR 181830Z 25004MPS CAVOK 08/05 Q1007 R30/CLRD65 R21/CLRD65 NOSIG RMK QFE746/0994
TAF USTR 181648Z 1818/1918 27005MPS 9999 SCT020 
     TEMPO 1818/1903 22003MPS 3100 BR SCT011 
     TEMPO 1903/1918 24006G12MPS 5000 -SHRA BKN015CB
       
UUEE 181830Z 31003MPS CAVOK 21/12 Q1013 R24C/CLRD62 R24L/CLRD62 NOSIG
TAF UUEE 181652Z 1818/1918 31003G08MPS CAVOK TX28/1912Z TN15/1902Z
       
URMT 181830Z 01003MPS CAVOK 25/07 Q1012 R07/010070 NOSIG RMK QFE719
TAF URMT 181700Z 1818/1903 02003G08MPS 9999 SCT030
       
URSS 181830Z 05002MPS 9999 NSC 25/21 Q1009 R02/010070 R06/010070 NOSIG RMK R06/07003MPS QFE755
TAF URSS 181656Z 1818/1918 05005MPS 9999 BKN030CB BKN100 
     TEMPO 1818/1905 VRB06G11MPS -TSRA BKN011 BKN020CB OVC100 
     FM190500 18005MPS 9999 SCT020 FEW030TCU 
     BECMG 1908/1909 23005MPS FEW040CB SCT100 
     TEMPO 1909/1912 -TSRA 
     FM191200 28006MPS 9999 SCT040CB 
     TEMPO 1912/1918 VRB07G12MPS -TSRA
       
UHMM 181800Z 06001MPS 9999 -SHRA SCT046CB 10/09 Q1006 RMK QFE739
TAF UHMM 181635Z 1818/1924 11003G08MPS 9999 SCT030CB BKN070 
     TEMPO 1818/1912 -SHRA BKN011 OVC025CB 
     BECMG 1900/1902 11005G10MPS 
     FM191300 12003G08MPS 9999 -SHRA SCT025CB BKN070 
     TEMPO 1913/1924 3100 -SHRA BR BKN011 OVC020CB
       
UWGG 181830Z 26003MPS CAVOK 18/14 Q1010 R36R/090070 NOSIG
TAF UWGG 181650Z 1818/1918 32003MPS 9999 BKN020 TX27/1912Z TN14/1901Z 
     TEMPO 1818/1821 BKN016CB 
     TEMPO 1906/1915 30005G10MPS
       
USRR 181830Z 29003MPS 9999 FEW040CB 10/10 Q1000 R25/CLRD60 NOSIG RMK QFE744
TAF USRR 181655Z 1818/1918 32003G08MPS 9999 BKN020 
     TEMPO 1818/1824 2100 -SHRA BR BKN005 BKN015CB 
     BECMG 1900/1902 31006G12MPS
       
UUYY 181830Z 27003MPS CAVOK 14/09 Q1004 R36/61D NOSIG RMK QFE744/0993
TAF UUYY 181700Z 1818/1918 27003MPS 9999 BKN020 SCT030CB 
     TEMPO 1818/1903 VRB01MPS 4000 BR 
     BECMG 1903/1905 30003G09MPS 
     TEMPO 1905/1918 4000 -SHRA BKN015 BKN020CB
       
ULAA 181830Z 06003MPS 030V090 9999 SCT033 15/05 Q1008 R08/CLRD68 NOSIG RMK QFE755/1007
TAF ULAA 181700Z 1818/1918 03004MPS 9999 SCT030 
     BECMG 1819/1821 10003G08MPS BKN020 
     TEMPO 1821/1909 14004G10MPS 3100 -SHRA BR FEW005 BKN011CB 
     TEMPO 1909/1918 19005G14MPS 3100 -TSRA BKN011CB
       
UNNT 181830Z 23005MPS 9999 FEW050CB 14/12 Q1000 R25/250160 R16/250160 NOSIG RMK QFE740/0987
TAF UNNT 181700Z 1818/1918 23006G13MPS 9999 BKN040CB 
     TEMPO 1818/1901 18003G08MPS 3100 -SHRA BR BKN011CB 
     PROB40 
     TEMPO 1818/1901 -TSRA 
     FM190100 25008G18MPS CAVOK 
     BECMG 1910/1912 24003G08MPS
       
UNOO 181830Z 27003MPS 9999 SCT033 08/05 Q1004 R25/CLRD60 NOSIG RMK QFE745
TAF UNOO 181659Z 1818/1918 26003MPS 6000 SCT020CB 
     TEMPO 1821/1901 1000 MIFG BR SCT004 
     BECMG 1901/1903 31003G08MPS BKN030CB 
     TEMPO 1903/1908 4000 -SHRA SCT010 BKN020CB
       
UWSS 181830Z 12003MPS 9999 SCT050CB BKN066 24/12 Q1010 R12/010095 NOSIG RMK QFE746
TAF UWSS 181700Z 1818/1903 32003G08MPS 9999 BKN030CB 
     TEMPO 1818/1903 30005G10MPS 3100 -SHRA BKN011 BKN020CB
       
UUDL 181830Z 30001MPS CAVOK 19/12 Q1011 R23/010060 NOSIG RMK QFE750
TAF UUDL 181655Z 1818/1918 30003MPS 9999 SCT040 
     TEMPO 1818/1821 4000 -SHRA BKN016CB
       
UWUU 181830Z 13002MPS 100V170 CAVOK 12/07 Q1010 R32L/0///60 NOSIG
TAF UWUU 181659Z 1818/1918 VRB01MPS CAVOK 
     TEMPO 1818/1903 12003MPS 
     FM190300 16003G08MPS 9999 BKN030 
     TEMPO 1906/1915 20005G11MPS 3100 -SHRA BKN011CB
       
UHMA 181800Z 15003MPS CAVOK 17/06 Q1013 R01/////// NOSIG RMK END R01/13003MPS QFE756/1008
TAF UHMA 181651Z 1818/1918 16006MPS 9999 SCT040 
     TEMPO 1818/1821 12003G08MPS 5000 -SHRA BKN033CB 
     TEMPO 1821/1912 12008G13MPS SCT033CB 
     TEMPO 1912/1918 10008G13MPS 5000 -TSRA BKN033CB
       
URML 181830Z 18002MPS 9999 NSC 21/17 Q1010 R14/01//70 NOSIG RMK QFE757/1010
TAF URML 181700Z 1818/1903 14003G10MPS 9999 SCT040CB 
     TEMPO 1818/1823 VRB05G12MPS -TSRA SCT030CB
       
URKA 181830Z 04004MPS CAVOK 22/17 Q1011 R04/010070 NOSIG RMK QFE754/1005
TAF URKA 181656Z 1818/1918 04005G10MPS CAVOK 
     TEMPO 1906/1915 06008G13MPS
       
UUWW 181830Z 27003MPS CAVOK 22/13 Q1013 R24/000070 NOSIG
TAF UUWW 181657Z 1818/1918 29003G08MPS 9999 SCT040 TX27/1912Z TN15/1902Z
       
UWLW 181800Z 27002MPS 8000 FEW040CB 20/13 Q1009 R20/CLRD60 NOSIG RMK QFE751
TAF UWLW 181645Z 1818/1918 31003MPS 8000 SCT033CB 
     TEMPO 1818/1824 26005G11MPS 4000 -SHRA BKN020CB 
     TEMPO 1900/1918 27007G14MPS 3100 -TSRA BKN015CB
       
UEEE 181830Z 16003MPS CAVOK 16/10 Q1007 R23L/09//60 NOSIG RMK QFE746
TAF UEEE 181700Z 1818/1924 04005G10MPS CAVOK
       
UHPP 181830Z VRB01MPS 9999 -SHRA SCT007 OVC021CB 07/07 Q1005 R16R/290150 NOSIG RMK MT OBSC QFE751/1001
TAF UHPP 181642Z 1818/1924 21003G08MPS 5000 -SHRA BR BKN005 OVC015CB 
     TEMPO 1818/1822 0900 SHRA FG VV002 
     FM182200 18003G12MPS 9999 -SHRA SCT011 BKN025CB 
     FM190900 15003G08MPS 2000 SHRA BR BKN005 OVC015CB 
     TEMPO 1909/1921 1000 SHRA BR VV003